Time;durP1;ratioP1;P1;durP2;ratioP2;P2;SDS_P1;SDS_P2;PMS_P1;PMS_P2;Temp;Humidity;BMP_temperature;BMP_pressure;BME280_temperature;BME280_humidity;BME280_pressure;Samples;Min_cycle;Max_cycle;Signal;HPM_P1;HPM_P2
2021/04/06 00:01:49;;;;;;;4.95;2.17;;;13.40;48.90;;;;;;5041146;28;20029;-60
2021/04/06 00:04:21;;;;;;;3.53;2.10;;;13.50;49.10;;;;;;5042469;28;20067;-60
2021/04/06 00:06:52;;;;;;;4.03;2.38;;;13.40;48.70;;;;;;5046045;28;20033;-60
2021/04/06 00:09:21;;;;;;;6.38;2.50;;;13.40;48.80;;;;;;5051988;28;20455;-60
2021/04/06 00:11:48;;;;;;;4.18;2.80;;;13.40;48.80;;;;;;5040582;28;20017;-60
2021/04/06 00:14:17;;;;;;;4.82;2.13;;;13.30;48.80;;;;;;5051428;28;20021;-60
2021/04/06 00:16:45;;;;;;;6.60;2.83;;;13.30;49.00;;;;;;5043970;28;20096;-60
2021/04/06 00:19:11;;;;;;;4.75;2.40;;;13.30;49.20;;;;;;5044202;28;20068;-60
2021/04/06 00:21:37;;;;;;;4.78;2.17;;;13.30;48.90;;;;;;5050013;28;20506;-60
2021/04/06 00:24:05;;;;;;;6.20;2.80;;;13.20;49.00;;;;;;5044527;28;20021;-60
2021/04/06 00:26:50;;;;;;;5.40;2.22;;;13.10;48.80;;;;;;5052274;28;20463;-60
2021/04/06 00:29:17;;;;;;;4.13;2.42;;;13.20;49.00;;;;;;5066612;28;20112;-60
2021/04/06 00:31:46;;;;;;;4.28;2.35;;;13.10;48.90;;;;;;5055762;28;20022;-60
2021/04/06 00:34:13;;;;;;;4.30;2.38;;;13.20;49.00;;;;;;5044813;28;20490;-60
2021/04/06 00:36:40;;;;;;;3.30;2.72;;;13.20;48.80;;;;;;5048615;28;20036;-60
2021/04/06 00:39:07;;;;;;;4.47;2.33;;;13.20;49.00;;;;;;5053223;28;20037;-60
2021/04/06 00:41:35;;;;;;;4.93;3.05;;;13.20;49.30;;;;;;5059437;28;20024;-60
2021/04/06 00:44:12;;;;;;;7.90;3.38;;;13.30;49.10;;;;;;5051208;28;20505;-61
2021/04/06 00:46:41;;;;;;;6.80;2.75;;;13.20;49.20;;;;;;5049699;28;20044;-60
2021/04/06 00:49:06;;;;;;;6.35;2.42;;;13.10;49.30;;;;;;5043843;28;20052;-61
2021/04/06 00:51:40;;;;;;;4.20;2.28;;;13.10;49.50;;;;;;5051514;28;20478;-61
2021/04/06 00:54:07;;;;;;;7.50;2.42;;;13.10;49.60;;;;;;5051070;28;20032;-60
2021/04/06 00:56:42;;;;;;;4.85;2.95;;;13.10;49.40;;;;;;5054766;28;20028;-60
2021/04/06 00:59:11;;;;;;;3.90;2.55;;;13.10;50.20;;;;;;5048551;28;20025;-60
2021/04/06 01:01:54;;;;;;;5.07;2.58;;;13.10;49.60;;;;;;5050760;28;20506;-60
2021/04/06 01:04:28;;;;;;;4.25;2.55;;;13.10;49.80;;;;;;5050458;28;20155;-60
2021/04/06 01:06:57;;;;;;;4.55;2.88;;;13.10;49.90;;;;;;5042340;28;20474;-60
2021/04/06 01:09:43;;;;;;;4.28;2.85;;;13.10;49.80;;;;;;5054472;28;20032;-60
2021/04/06 01:12:28;;;;;;;6.60;2.92;;;13.10;50.50;;;;;;5064867;28;20484;-60
2021/04/06 01:14:56;;;;;;;;;;;13.10;50.30;;;;;;5045927;28;20029;-60
2021/04/06 01:17:40;;;;;;;3.83;2.53;;;13.10;51.50;;;;;;5052499;28;20007;-60
2021/04/06 01:20:13;;;;;;;6.45;2.97;;;13.00;51.20;;;;;;5048489;28;20040;-60
2021/04/06 01:22:40;;;;;;;5.25;2.72;;;13.00;50.40;;;;;;5054856;28;20067;-60
2021/04/06 01:25:15;;;;;;;7.57;3.17;;;13.00;49.90;;;;;;5054701;28;20501;-60
2021/04/06 01:27:40;;;;;;;3.17;2.42;;;13.00;50.20;;;;;;5036858;28;20021;-60
2021/04/06 01:30:09;;;;;;;8.32;3.10;;;13.00;50.10;;;;;;5059103;28;20194;-60
2021/04/06 01:32:35;;;;;;;4.32;3.08;;;13.00;50.10;;;;;;5063252;28;20032;-60
2021/04/06 01:35:01;;;;;;;5.57;3.40;;;13.00;50.70;;;;;;5042208;28;20065;-60
2021/04/06 01:37:28;;;;;;;5.18;3.17;;;13.00;50.80;;;;;;5067959;28;20492;-60
2021/04/06 01:39:55;;;;;;;4.90;2.83;;;13.00;50.50;;;;;;5051899;28;20385;-60
2021/04/06 01:42:23;;;;;;;5.32;3.13;;;12.90;50.80;;;;;;5045071;28;20021;-60
2021/04/06 01:44:51;;;;;;;8.00;3.30;;;12.90;50.10;;;;;;5053850;28;20076;-60
2021/04/06 01:47:18;;;;;;;7.25;3.60;;;12.90;50.30;;;;;;5053613;28;20025;-60
2021/04/06 01:49:44;;;;;;;4.75;3.42;;;12.90;50.40;;;;;;5043348;28;20025;-60
2021/04/06 01:52:11;;;;;;;5.10;3.20;;;12.80;50.40;;;;;;5043980;28;20104;-60
2021/04/06 01:54:38;;;;;;;4.57;2.83;;;12.90;50.80;;;;;;5048749;28;20091;-60
2021/04/06 01:57:14;;;;;;;7.95;4.57;;;12.90;50.60;;;;;;5044388;28;20052;-61
2021/04/06 01:59:55;;;;;;;6.28;2.80;;;12.90;50.80;;;;;;5049495;28;20446;-61
2021/04/06 02:02:28;;;;;;;4.07;3.03;;;12.90;50.80;;;;;;5046925;28;20028;-61
2021/04/06 02:04:59;;;;;;;4.88;3.17;;;12.80;50.90;;;;;;5059409;28;20120;-61
2021/04/06 02:07:31;;;;;;;6.20;3.25;;;12.90;51.20;;;;;;5056846;28;20025;-60
2021/04/06 02:09:59;;;;;;;6.38;3.75;;;12.80;51.10;;;;;;5045332;28;20108;-60
2021/04/06 02:12:25;;;;;;;5.22;3.00;;;12.90;51.20;;;;;;5059209;28;20021;-59
2021/04/06 02:14:57;;;;;;;4.30;2.92;;;12.90;51.00;;;;;;5045906;28;20033;-60
2021/04/06 02:17:23;;;;;;;7.30;3.58;;;12.90;51.50;;;;;;5052019;28;20428;-60
2021/04/06 02:19:49;;;;;;;6.07;3.58;;;12.80;51.30;;;;;;5043772;28;20147;-60
2021/04/06 02:22:19;;;;;;;5.70;3.25;;;12.70;51.20;;;;;;5046884;28;20107;-60
2021/04/06 02:24:53;;;;;;;7.22;3.72;;;12.70;51.30;;;;;;5044032;28;20039;-60
2021/04/06 02:27:20;;;;;;;8.60;3.58;;;12.70;51.80;;;;;;5039962;28;20025;-60
2021/04/06 02:29:54;;;;;;;5.90;4.03;;;12.70;51.50;;;;;;5040494;28;20433;-60
2021/04/06 02:32:26;;;;;;;7.30;3.72;;;12.70;52.80;;;;;;5040275;28;20084;-60
2021/04/06 02:35:13;;;;;;;5.78;3.42;;;12.80;52.90;;;;;;5048777;28;20453;-60
2021/04/06 02:37:43;;;;;;;5.88;3.88;;;12.80;52.20;;;;;;5041217;28;20104;-60
2021/04/06 02:40:12;;;;;;;5.68;4.20;;;12.70;52.00;;;;;;5047428;28;20035;-60
2021/04/06 02:42:40;;;;;;;7.88;3.85;;;12.80;52.30;;;;;;5042214;28;20028;-60
2021/04/06 02:45:15;;;;;;;7.03;3.65;;;12.80;51.70;;;;;;5052665;28;20123;-60
2021/04/06 02:48:06;;;;;;;6.13;3.92;;;12.70;51.70;;;;;;5045734;28;20116;-60
2021/04/06 02:50:33;;;;;;;10.82;4.53;;;12.80;52.60;;;;;;5042387;28;20053;-59
2021/04/06 02:53:04;;;;;;;5.70;3.63;;;12.60;52.00;;;;;;5047482;28;20025;-60
2021/04/06 02:55:30;;;;;;;6.05;3.60;;;12.60;51.90;;;;;;5038312;28;20103;-60
2021/04/06 02:57:56;;;;;;;5.22;3.85;;;12.60;51.80;;;;;;5049150;28;20135;-60
2021/04/06 03:00:28;;;;;;;7.28;3.75;;;12.60;51.90;;;;;;5035520;28;20034;-60
2021/04/06 03:02:54;;;;;;;6.63;4.30;;;12.60;52.50;;;;;;5040719;28;20025;-60
2021/04/06 03:05:34;;;;;;;9.35;4.03;;;12.60;52.00;;;;;;5041267;28;20029;-60
2021/04/06 03:08:00;;;;;;;5.10;3.80;;;12.60;52.60;;;;;;5053196;28;20043;-60
2021/04/06 03:10:27;;;;;;;8.32;3.63;;;12.60;52.10;;;;;;5048495;28;20096;-60
2021/04/06 03:12:53;;;;;;;8.15;3.92;;;12.50;52.40;;;;;;5050113;28;20482;-60
2021/04/06 03:15:25;;;;;;;6.75;4.00;;;12.50;51.90;;;;;;5034321;28;20036;-60
2021/04/06 03:17:54;;;;;;;5.90;3.75;;;12.40;52.10;;;;;;5048882;28;20035;-60
2021/04/06 03:20:21;;;;;;;8.25;4.47;;;12.40;52.00;;;;;;5045124;28;20029;-60
2021/04/06 03:22:49;;;;;;;8.90;4.05;;;12.40;52.00;;;;;;5041393;28;20114;-60
2021/04/06 03:25:15;;;;;;;6.13;4.00;;;12.40;52.10;;;;;;5051651;28;20036;-60
2021/04/06 03:27:45;;;;;;;6.60;4.28;;;12.40;52.30;;;;;;5049456;28;20035;-61
2021/04/06 03:30:13;;;;;;;9.88;4.53;;;12.30;52.40;;;;;;5047627;28;20604;-60
2021/04/06 03:32:40;;;;;;;7.70;4.22;;;12.30;52.40;;;;;;5052099;28;20037;-60
2021/04/06 03:35:07;;;;;;;7.25;3.28;;;12.30;52.10;;;;;;5039966;28;20104;-60
2021/04/06 03:37:36;;;;;;;6.50;3.58;;;12.20;52.80;;;;;;5039892;28;20059;-60
2021/04/06 03:40:04;;;;;;;6.30;3.60;;;12.30;52.40;;;;;;5048532;28;20395;-61
2021/04/06 03:42:30;;;;;;;7.82;4.22;;;12.20;52.40;;;;;;5045366;28;20021;-61
2021/04/06 03:45:08;;;;;;;7.30;4.00;;;12.20;52.50;;;;;;5051428;28;20044;-60
2021/04/06 03:47:58;;;;;;;7.45;4.10;;;12.20;53.50;;;;;;5044523;28;20456;-60
2021/04/06 03:50:40;;;;;;;7.45;3.78;;;12.20;53.30;;;;;;5044300;28;20017;-60
2021/04/06 03:53:10;;;;;;;5.15;3.67;;;12.20;52.80;;;;;;5043913;28;20025;-60
2021/04/06 03:55:37;;;;;;;7.43;3.70;;;12.10;52.80;;;;;;5047520;28;20361;-60
2021/04/06 03:58:20;;;;;;;10.85;4.60;;;12.10;52.90;;;;;;5046440;28;20036;-60
2021/04/06 04:00:46;;;;;;;8.15;4.93;;;12.10;53.00;;;;;;5042441;28;20033;-60
2021/04/06 04:03:11;;;;;;;6.95;4.07;;;12.10;52.90;;;;;;5038388;28;20116;-60
2021/04/06 04:05:37;;;;;;;6.22;4.20;;;12.00;53.00;;;;;;5038193;28;20390;-60
2021/04/06 04:08:03;;;;;;;10.07;4.55;;;12.00;53.00;;;;;;5046159;28;20025;-60
2021/04/06 04:10:29;;;;;;;9.55;4.20;;;12.10;52.60;;;;;;5038497;28;20029;-60
2021/04/06 04:12:54;;;;;;;7.72;4.80;;;12.00;52.80;;;;;;5061579;28;20433;-60
2021/04/06 04:15:21;;;;;;;10.98;5.10;;;12.00;52.90;;;;;;5048664;28;20482;-60
2021/04/06 04:17:50;;;;;;;7.53;4.25;;;11.90;52.70;;;;;;5046311;28;20025;-61
2021/04/06 04:20:18;;;;;;;7.95;5.07;;;11.90;52.90;;;;;;5040779;28;20163;-61
2021/04/06 04:22:46;;;;;;;8.93;4.93;;;11.90;53.20;;;;;;5044804;28;20029;-61
2021/04/06 04:25:13;;;;;;;7.78;4.68;;;11.90;52.80;;;;;;5046033;28;20369;-61
2021/04/06 04:27:42;;;;;;;10.38;4.20;;;11.90;52.80;;;;;;5045041;28;20053;-61
2021/04/06 04:30:10;;;;;;;7.55;3.92;;;11.80;52.90;;;;;;5045927;28;20076;-61
2021/04/06 04:32:35;;;;;;;10.48;4.40;;;11.80;52.90;;;;;;5050294;28;20378;-60
2021/04/06 04:35:02;;;;;;;7.65;4.07;;;11.80;52.80;;;;;;5044640;28;20123;-61
2021/04/06 04:37:28;;;;;;;8.00;4.00;;;11.80;52.90;;;;;;5047179;28;20032;-61
2021/04/06 04:39:53;;;;;;;6.05;4.00;;;11.90;52.80;;;;;;5042770;28;20045;-61
2021/04/06 04:42:19;;;;;;;8.45;3.88;;;11.80;53.00;;;;;;5034753;28;20036;-61
2021/04/06 04:44:45;;;;;;;8.02;4.88;;;11.80;52.90;;;;;;5040554;28;20057;-61
2021/04/06 04:47:11;;;;;;;6.67;3.53;;;11.80;52.90;;;;;;5045069;28;20525;-61
2021/04/06 04:49:36;;;;;;;6.85;4.03;;;11.70;53.10;;;;;;5046652;28;20033;-61
2021/04/06 04:52:02;;;;;;;6.28;3.40;;;11.70;52.90;;;;;;5033378;28;20041;-61
2021/04/06 04:54:28;;;;;;;4.85;4.03;;;11.70;52.10;;;;;;5049884;28;20021;-61
2021/04/06 04:56:54;;;;;;;5.78;3.67;;;11.80;52.10;;;;;;5047828;28;20029;-61
2021/04/06 04:59:20;;;;;;;9.45;3.70;;;11.70;51.70;;;;;;5042679;28;20104;-61
2021/04/06 05:01:46;;;;;;;8.18;3.95;;;11.70;51.40;;;;;;5056101;28;20066;-61
2021/04/06 05:04:24;;;;;;;7.28;3.60;;;11.70;51.60;;;;;;5053433;28;20045;-60
2021/04/06 05:06:49;;;;;;;4.63;3.50;;;11.80;51.50;;;;;;5052127;28;20112;-60
2021/04/06 05:09:15;;;;;;;6.65;3.65;;;11.60;50.60;;;;;;5048214;28;20105;-60
2021/04/06 05:11:41;;;;;;;7.30;3.22;;;11.70;50.60;;;;;;5036585;28;20025;-60
2021/04/06 05:14:07;;;;;;;6.47;3.35;;;11.80;50.70;;;;;;5052620;28;20116;-60
2021/04/06 05:16:33;;;;;;;8.55;3.35;;;11.80;50.10;;;;;;5053925;28;20024;-60
2021/04/06 05:18:58;;;;;;;11.70;3.85;;;11.70;49.40;;;;;;5049237;28;20037;-60
2021/04/06 05:21:24;;;;;;;6.80;3.40;;;11.70;48.90;;;;;;5042231;28;20021;-60
2021/04/06 05:23:50;;;;;;;9.23;3.03;;;11.70;48.70;;;;;;5049401;28;20387;-60
2021/04/06 05:26:15;;;;;;;7.30;2.85;;;11.70;47.80;;;;;;5048262;28;20492;-60
2021/04/06 05:28:41;;;;;;;6.10;2.67;;;11.70;47.40;;;;;;5046698;28;20129;-61
2021/04/06 05:31:07;;;;;;;4.68;2.60;;;11.60;46.30;;;;;;5038354;28;20029;-60
2021/04/06 05:33:32;;;;;;;6.70;2.45;;;11.70;45.60;;;;;;5041595;28;20033;-61
2021/04/06 05:35:58;;;;;;;4.40;2.33;;;11.70;45.10;;;;;;5039694;28;20022;-60
2021/04/06 05:38:23;;;;;;;3.90;2.03;;;11.60;43.80;;;;;;5039835;28;20052;-60
2021/04/06 05:40:50;;;;;;;4.35;2.53;;;11.70;42.90;;;;;;5042447;28;20037;-60
2021/04/06 05:43:17;;;;;;;7.00;2.33;;;11.70;43.10;;;;;;5049302;28;20024;-61
2021/04/06 05:45:49;;;;;;;9.35;2.60;;;11.80;42.60;;;;;;5054148;28;20053;-60
2021/04/06 05:48:16;;;;;;;4.80;2.22;;;11.80;42.80;;;;;;5035985;28;20390;-60
2021/04/06 05:50:48;;;;;;;7.78;2.17;;;11.80;42.70;;;;;;5039705;28;20033;-60
2021/04/06 05:53:14;;;;;;;5.00;2.55;;;11.70;42.00;;;;;;5071965;28;20031;-60
2021/04/06 05:55:40;;;;;;;8.23;2.53;;;11.80;42.10;;;;;;5054423;28;20029;-60
2021/04/06 05:58:06;;;;;;;5.45;2.50;;;11.80;41.60;;;;;;5051840;28;20092;-60
2021/04/06 06:00:32;;;;;;;3.38;1.80;;;11.80;40.30;;;;;;5042562;28;20037;-60
2021/04/06 06:02:59;;;;;;;5.13;2.30;;;11.90;39.80;;;;;;5052654;28;20032;-60
2021/04/06 06:05:25;;;;;;;7.65;2.38;;;11.90;39.20;;;;;;5040802;28;20383;-60
2021/04/06 06:07:51;;;;;;;3.65;2.10;;;11.80;39.20;;;;;;5054062;28;20048;-60
2021/04/06 06:10:34;;;;;;;8.77;2.20;;;11.90;38.60;;;;;;5049316;28;20553;-60
2021/04/06 06:13:17;;;;;;;5.28;1.70;;;12.00;38.90;;;;;;5047950;28;20036;-60
2021/04/06 06:15:42;;;;;;;5.72;2.40;;;12.00;36.10;;;;;;5051927;28;20024;-60
2021/04/06 06:18:08;;;;;;;6.15;2.08;;;12.00;38.20;;;;;;5048143;28;20021;-61
2021/04/06 06:20:36;;;;;;;3.60;1.92;;;12.10;36.90;;;;;;5038478;28;20072;-61
2021/04/06 06:23:22;;;;;;;8.65;1.92;;;12.10;35.50;;;;;;5047605;28;20025;-60
2021/04/06 06:26:16;;;;;;;10.10;1.63;;;12.20;32.20;;;;;;5062074;28;20033;-60
2021/04/06 06:29:01;;;;;;;10.60;2.00;;;12.20;30.70;;;;;;5041157;28;20360;-60
2021/04/06 06:31:45;;;;;;;7.53;1.55;;;12.10;32.60;;;;;;5035412;28;20495;-61
2021/04/06 06:34:32;;;;;;;3.70;1.33;;;12.20;30.30;;;;;;5042194;28;20025;-61
2021/04/06 06:37:26;;;;;;;6.40;1.30;;;12.20;30.60;;;;;;5064678;28;20407;-60
2021/04/06 06:39:54;;;;;;;4.78;1.50;;;12.10;29.40;;;;;;5044674;28;20029;-60
2021/04/06 06:42:30;;;;;;;4.13;1.23;;;12.10;30.60;;;;;;5053328;28;20157;-60
2021/04/06 06:44:56;;;;;;;6.88;1.55;;;12.20;28.90;;;;;;5044902;28;20391;-60
2021/04/06 06:47:24;;;;;;;3.92;0.82;;;12.20;29.10;;;;;;5053480;28;20062;-60
2021/04/06 06:49:53;;;;;;;5.45;0.93;;;12.20;24.80;;;;;;5053228;28;20387;-60
2021/04/06 06:52:21;;;;;;;4.35;0.70;;;12.10;26.80;;;;;;5053440;28;20398;-60
2021/04/06 06:54:47;;;;;;;1.95;0.45;;;12.20;25.20;;;;;;5047155;28;20033;-60
2021/04/06 06:57:14;;;;;;;8.48;0.98;;;12.30;24.20;;;;;;5053617;28;20378;-61
2021/04/06 06:59:43;;;;;;;9.27;1.27;;;12.30;25.70;;;;;;5053246;28;20056;-61
2021/04/06 07:02:29;;;;;;;6.95;0.57;;;12.20;22.80;;;;;;5051222;28;20025;-59
2021/04/06 07:05:22;;;;;;;4.25;0.60;;;12.20;19.60;;;;;;5043448;28;20068;-62
2021/04/06 07:08:01;;;;;;;8.60;0.82;;;12.10;20.00;;;;;;5053277;28;20029;-61
2021/04/06 07:10:39;;;;;;;5.68;1.05;;;12.20;21.10;;;;;;5041701;28;20027;-62
2021/04/06 07:13:07;;;;;;;4.83;0.60;;;12.20;21.00;;;;;;5053363;28;20025;-62
2021/04/06 07:15:39;;;;;;;6.72;0.98;;;12.20;18.70;;;;;;5052237;28;20021;-62
2021/04/06 07:18:14;;;;;;;4.45;0.60;;;12.30;19.50;;;;;;5038597;28;20328;-62
2021/04/06 07:21:01;;;;;;;3.30;0.30;;;12.30;19.80;;;;;;5045536;28;20045;-62
2021/04/06 07:23:33;;;;;;;7.03;0.70;;;12.50;18.40;;;;;;5044655;28;20017;-67
2021/04/06 07:26:08;;;;;;;6.00;0.50;;;12.40;19.40;;;;;;5045808;28;20104;-59
2021/04/06 07:28:34;;;;;;;;;;;12.50;19.60;;;;;;5050633;28;20021;-59
2021/04/06 07:31:03;;;;;;;5.68;0.52;;;12.50;17.60;;;;;;5051483;28;19950;-59
2021/04/06 07:33:31;;;;;;;7.05;0.73;;;12.50;17.80;;;;;;5046818;28;20026;-59
2021/04/06 07:36:00;;;;;;;4.18;0.40;;;12.50;16.90;;;;;;5038738;28;20013;-60
2021/04/06 07:38:25;;;;;;;7.05;0.90;;;12.50;17.60;;;;;;5052783;28;20025;-60
2021/04/06 07:40:52;;;;;;;4.47;0.60;;;12.60;18.30;;;;;;5042082;28;20036;-60
2021/04/06 07:43:20;;;;;;;2.30;0.55;;;12.70;18.50;;;;;;5051919;28;20020;-60
2021/04/06 07:45:45;;;;;;;3.33;0.60;;;12.80;17.70;;;;;;5052549;28;20053;-60
2021/04/06 07:48:13;;;;;;;4.00;0.85;;;12.80;17.80;;;;;;5052299;28;20104;-60
2021/04/06 07:50:42;;;;;;;3.78;0.57;;;12.70;15.50;;;;;;5043611;28;20038;-61
2021/04/06 07:53:20;;;;;;;12.02;1.27;;;12.70;17.50;;;;;;5034926;28;20072;-61
2021/04/06 07:55:46;;;;;;;6.93;0.90;;;12.80;15.80;;;;;;5068102;28;20029;-61
2021/04/06 07:58:44;;;;;;;11.60;0.68;;;12.80;16.30;;;;;;5052532;28;20520;-60
2021/04/06 08:01:12;;;;;;;18.70;1.08;;;12.80;13.80;;;;;;5051653;28;20525;-60
2021/04/06 08:04:02;;;;;;;15.48;1.15;;;12.80;13.30;;;;;;5052216;28;20032;-61
2021/04/06 08:06:40;;;;;;;5.28;0.70;;;12.70;11.90;;;;;;5047599;28;20041;-61
2021/04/06 08:10:04;;;;;;;7.55;1.13;;;12.70;13.10;;;;;;5052687;28;20082;-61
2021/04/06 08:12:30;;;;;;;1.90;0.43;;;12.70;11.90;;;;;;5038916;28;20108;-61
2021/04/06 08:15:03;;;;;;;8.68;0.90;;;12.70;13.60;;;;;;5052363;28;20017;-60
2021/04/06 08:17:29;;;;;;;8.40;0.88;;;12.60;11.70;;;;;;5039601;28;20024;-60
2021/04/06 08:20:16;;;;;;;4.70;0.75;;;12.70;11.60;;;;;;5052161;28;20131;-60
2021/04/06 08:23:02;;;;;;;3.63;0.88;;;12.80;13.00;;;;;;5040359;28;20025;-61
2021/04/06 08:25:30;;;;;;;6.10;0.73;;;12.90;11.70;;;;;;5049064;28;20029;-60
2021/04/06 08:27:57;;;;;;;5.25;0.50;;;12.90;13.20;;;;;;5056936;28;20383;-60
2021/04/06 08:30:34;;;;;;;8.15;0.77;;;13.00;13.20;;;;;;5053381;28;20021;-60
2021/04/06 08:33:00;;;;;;;3.97;0.80;;;13.00;12.60;;;;;;5056207;28;20025;-60
2021/04/06 08:38:25;;;;;;;4.47;0.57;;;13.00;11.80;;;;;;5056001;28;20029;-60
2021/04/06 08:40:52;;;;;;;7.82;0.75;;;12.90;10.90;;;;;;5054486;28;20029;-59
2021/04/06 08:43:27;;;;;;;3.53;1.48;;;12.90;11.60;;;;;;5055619;28;20028;-60
2021/04/06 08:46:04;;;;;;;8.02;1.38;;;13.00;12.40;;;;;;5055788;28;20052;-60
2021/04/06 08:51:19;;;;;;;5.25;0.80;;;13.20;11.90;;;;;;5049601;28;20021;-60
2021/04/06 08:54:06;;;;;;;6.50;0.65;;;13.20;11.70;;;;;;5070899;28;20320;-60
2021/04/06 08:56:43;;;;;;;2.63;0.43;;;13.10;12.40;;;;;;5053890;28;20032;-60
2021/04/06 08:59:18;;;;;;;7.43;0.77;;;13.10;11.20;;;;;;5055520;28;20367;-60
2021/04/06 09:01:46;;;;;;;2.80;0.63;;;13.20;13.00;;;;;;5050151;28;20029;-60
2021/04/06 09:04:24;;;;;;;8.65;0.70;;;13.20;11.20;;;;;;5043459;28;20120;-60
2021/04/06 09:06:51;;;;;;;5.40;1.00;;;13.20;11.40;;;;;;5052473;28;20021;-60
2021/04/06 09:09:25;;;;;;;7.57;1.00;;;13.30;12.80;;;;;;5051114;28;20032;-60
2021/04/06 09:11:52;;;;;;;6.63;0.77;;;13.40;13.00;;;;;;5049569;28;20025;-60
2021/04/06 09:14:18;;;;;;;4.20;1.20;;;13.30;11.50;;;;;;5054751;28;20021;-60
2021/04/06 09:16:44;;;;;;;4.75;0.60;;;13.40;11.90;;;;;;5054952;28;20060;-60
2021/04/06 09:19:15;;;;;;;1.52;0.50;;;13.40;12.70;;;;;;5054116;28;20127;-60
2021/04/06 09:21:55;;;;;;;2.42;0.82;;;13.50;11.80;;;;;;5053156;28;20037;-60
2021/04/06 09:24:23;;;;;;;3.60;0.70;;;13.50;11.80;;;;;;5048819;28;20029;-60
2021/04/06 09:26:51;;;;;;;1.80;0.57;;;13.50;11.80;;;;;;5054945;28;20501;-60
2021/04/06 09:29:22;;;;;;;4.25;0.70;;;13.50;12.00;;;;;;5053675;28;20070;-60
2021/04/06 09:35:17;;;;;;;1.75;0.52;;;13.60;11.60;;;;;;5046765;28;20028;-60
2021/04/06 09:37:43;;;;;;;5.13;0.60;;;13.50;10.90;;;;;;5054067;28;20390;-60
2021/04/06 09:40:09;;;;;;;5.68;0.85;;;13.50;11.40;;;;;;5052808;28;20098;-60
2021/04/06 09:42:35;;;;;;;3.17;0.60;;;13.50;11.80;;;;;;5038810;28;20033;-60
2021/04/06 09:45:03;;;;;;;7.28;1.08;;;13.50;11.60;;;;;;5053501;28;20052;-61
2021/04/06 09:47:29;;;;;;;7.50;0.50;;;13.60;11.40;;;;;;5054387;28;20121;-60
2021/04/06 09:49:55;;;;;;;4.93;0.47;;;13.60;10.70;;;;;;5053435;28;20158;-60
2021/04/06 09:52:26;;;;;;;4.43;1.30;;;13.60;9.90;;;;;;5039606;28;20040;-60
2021/04/06 09:55:09;;;;;;;6.40;0.80;;;13.60;10.70;;;;;;5038067;28;20624;-60
2021/04/06 09:57:46;;;;;;;9.63;0.63;;;13.80;11.30;;;;;;5054521;28;20100;-60
2021/04/06 10:00:18;;;;;;;1.65;0.90;;;13.90;9.90;;;;;;5054628;28;20040;-60
2021/04/06 10:03:11;;;;;;;6.10;0.50;;;14.00;11.90;;;;;;5040781;28;20072;-60
2021/04/06 10:05:41;;;;;;;2.88;0.45;;;13.90;9.20;;;;;;5043200;28;20047;-60
2021/04/06 10:08:06;;;;;;;3.42;0.50;;;14.00;10.80;;;;;;5053965;28;20474;-60
2021/04/06 10:10:34;;;;;;;5.07;0.70;;;14.10;10.40;;;;;;5054166;28;20029;-60
2021/04/06 10:13:01;;;;;;;6.80;1.00;;;14.00;9.70;;;;;;5053868;28;20031;-61
2021/04/06 10:15:29;;;;;;;9.35;0.95;;;14.20;10.70;;;;;;5040430;28;20443;-61
2021/04/06 10:17:55;;;;;;;7.70;0.70;;;14.10;10.10;;;;;;5052223;28;20013;-68
2021/04/06 10:20:34;;;;;;;3.38;0.47;;;14.00;9.40;;;;;;5043149;28;20494;-68
2021/04/06 10:23:00;;;;;;;4.15;0.70;;;14.10;9.60;;;;;;5046476;28;20018;-63
2021/04/06 10:25:40;;;;;;;4.25;0.50;;;14.10;9.60;;;;;;5051854;28;20031;-62
2021/04/06 10:28:07;;;;;;;3.85;0.63;;;14.10;9.70;;;;;;5037042;28;20024;-63
2021/04/06 10:30:44;;;;;;;2.15;0.40;;;14.20;9.50;;;;;;5052165;28;20466;-63
2021/04/06 10:33:13;;;;;;;6.03;0.40;;;14.30;9.30;;;;;;5049775;28;20032;-75
2021/04/06 10:35:48;;;;;;;1.80;0.40;;;14.30;10.10;;;;;;5051468;28;20039;-63
2021/04/06 10:38:17;;;;;;;;;;;14.40;9.00;;;;;;5054315;28;20462;-67
2021/04/06 10:40:44;;;;;;;5.90;0.55;;;14.30;8.80;;;;;;5052774;28;19931;-64
2021/04/06 10:43:14;;;;;;;6.18;0.60;;;14.50;9.60;;;;;;5051588;28;20482;-62
2021/04/06 10:45:51;;;;;;;3.50;0.40;;;14.50;8.70;;;;;;5051912;28;20047;-63
2021/04/06 10:48:18;;;;;;;2.13;0.60;;;14.50;8.80;;;;;;5053086;28;20091;-62
2021/04/06 10:50:50;;;;;;;3.40;0.75;;;14.70;8.80;;;;;;5052852;28;20040;-65
2021/04/06 10:53:19;;;;;;;1.73;0.50;;;14.80;9.10;;;;;;5044818;28;20071;-61
2021/04/06 10:55:47;;;;;;;2.55;0.70;;;14.90;9.00;;;;;;5048767;28;20048;-61
2021/04/06 10:58:27;;;;;;;6.15;0.52;;;14.80;9.10;;;;;;5053317;28;20025;-61
2021/04/06 11:01:03;;;;;;;4.20;0.57;;;14.90;8.60;;;;;;5053029;28;20033;-61
2021/04/06 11:03:44;;;;;;;1.80;0.35;;;14.80;9.00;;;;;;5045174;28;20490;-61
2021/04/06 11:06:13;;;;;;;5.13;1.00;;;14.90;8.50;;;;;;5050904;28;20094;-61
2021/04/06 11:08:41;;;;;;;3.97;0.43;;;15.00;9.00;;;;;;5053243;28;20033;-61
2021/04/06 11:11:21;;;;;;;1.95;0.30;;;15.00;9.10;;;;;;5052862;28;20025;-61
2021/04/06 11:13:48;;;;;;;3.38;0.30;;;15.20;9.10;;;;;;5043181;28;20083;-62
2021/04/06 11:16:14;;;;;;;1.20;0.50;;;15.30;8.60;;;;;;5049245;28;20061;-61
2021/04/06 11:18:41;;;;;;;6.32;0.40;;;15.30;8.80;;;;;;5051752;28;20044;-62
2021/04/06 11:21:08;;;;;;;6.32;1.50;;;15.40;8.70;;;;;;5053202;28;20053;-62
2021/04/06 11:23:34;;;;;;;5.25;0.80;;;15.40;8.80;;;;;;5047640;28;20025;-62
2021/04/06 11:26:00;;;;;;;4.82;0.90;;;15.30;8.80;;;;;;5045642;28;20497;-62
2021/04/06 11:28:26;;;;;;;8.32;1.13;;;15.50;8.40;;;;;;5046274;28;20554;-62
2021/04/06 11:30:51;;;;;;;5.60;1.10;;;15.50;9.60;;;;;;5052548;28;20035;-62
2021/04/06 11:33:17;;;;;;;7.32;0.90;;;15.70;8.90;;;;;;5052258;28;20028;-62
2021/04/06 11:35:43;;;;;;;2.25;0.80;;;15.80;9.20;;;;;;5041670;28;20154;-62
2021/04/06 11:38:08;;;;;;;2.33;1.10;;;16.00;9.20;;;;;;5052497;28;20040;-62
2021/04/06 11:40:34;;;;;;;1.60;0.40;;;16.00;8.20;;;;;;5052671;28;20509;-62
2021/04/06 11:43:00;;;;;;;5.55;0.70;;;15.80;7.40;;;;;;5052958;28;20033;-62
2021/04/06 11:45:26;;;;;;;4.40;0.40;;;15.90;8.10;;;;;;5052305;28;20049;-62
2021/04/06 11:47:53;;;;;;;6.95;0.60;;;16.10;8.60;;;;;;5050870;28;20029;-62
2021/04/06 11:50:20;;;;;;;1.23;0.43;;;16.50;8.70;;;;;;5052627;28;20033;-62
2021/04/06 11:52:47;;;;;;;1.90;0.47;;;16.40;8.00;;;;;;5051361;28;20115;-62
2021/04/06 11:55:14;;;;;;;2.97;0.80;;;16.60;7.90;;;;;;5052367;28;20104;-62
2021/04/06 11:57:39;;;;;;;3.53;1.00;;;17.10;8.20;;;;;;5067859;28;20029;-62
2021/04/06 12:00:06;;;;;;;3.60;0.45;;;18.30;6.90;;;;;;5052599;28;20174;-62
2021/04/06 12:02:32;;;;;;;1.23;0.30;;;25.70;9.80;;;;;;5052441;28;20017;-59
2021/04/06 12:04:58;;;;;;;2.67;0.50;;;28.80;11.70;;;;;;5045338;28;20025;-61
2021/04/06 12:07:25;;;;;;;3.25;0.43;;;30.30;27.00;;;;;;5053319;28;20033;-61
2021/04/06 12:09:51;;;;;;;3.78;0.60;;;31.60;17.30;;;;;;5038763;28;20057;-61
2021/04/06 12:12:16;;;;;;;11.07;0.93;;;29.80;3.70;;;;;;5051406;28;20032;-61
2021/04/06 12:14:42;;;;;;;5.20;1.15;;;32.80;4.90;;;;;;5054923;28;20109;-60
2021/04/06 12:17:08;;;;;;;7.40;0.70;;;34.70;4.70;;;;;;5056463;28;20029;-61
2021/04/06 12:19:33;;;;;;;3.28;0.60;;;35.10;3.80;;;;;;5055865;28;20029;-61
2021/04/06 12:21:59;;;;;;;3.42;0.70;;;36.90;4.20;;;;;;5056483;28;20037;-61
2021/04/06 12:24:25;;;;;;;2.97;0.90;;;36.50;2.90;;;;;;5048668;28;20032;-62
2021/04/06 12:26:52;;;;;;;1.20;0.68;;;37.80;4.20;;;;;;5056142;28;20037;-62
2021/04/06 12:29:18;;;;;;;7.00;0.95;;;35.10;3.70;;;;;;5056324;28;20025;-62
2021/04/06 12:31:43;;;;;;;1.98;0.80;;;32.30;3.80;;;;;;5054622;28;20036;-62
2021/04/06 12:34:09;;;;;;;1.55;0.50;;;30.30;3.60;;;;;;5054556;28;20059;-62
2021/04/06 12:36:35;;;;;;;3.83;0.63;;;30.10;2.90;;;;;;5051709;28;20033;-61
2021/04/06 12:39:00;;;;;;;1.83;0.70;;;30.60;4.00;;;;;;5044351;28;20071;-62
2021/04/06 12:41:26;;;;;;;1.90;0.60;;;29.10;4.60;;;;;;5055882;28;20090;-62
2021/04/06 12:43:52;;;;;;;6.40;0.93;;;29.00;4.60;;;;;;5055884;28;20530;-62
2021/04/06 12:46:17;;;;;;;3.75;0.88;;;29.10;4.00;;;;;;5051093;28;20102;-62
2021/04/06 12:48:43;;;;;;;6.07;0.90;;;29.50;3.50;;;;;;5053648;28;20060;-62
2021/04/06 12:51:09;;;;;;;2.40;1.20;;;29.40;4.70;;;;;;5055799;28;20032;-62
2021/04/06 12:53:34;;;;;;;2.78;0.68;;;29.80;4.20;;;;;;5055895;28;20025;-62
2021/04/06 12:56:00;;;;;;;1.75;0.90;;;32.40;3.50;;;;;;5054740;28;20090;-61
2021/04/06 12:58:25;;;;;;;3.70;1.05;;;35.90;4.30;;;;;;5055430;28;20107;-61
2021/04/06 13:00:52;;;;;;;0.70;0.70;;;;;;;;;;5055415;28;20029;-61
2021/04/06 13:03:17;;;;;;;2.83;0.70;;;36.60;2.60;;;;;;5054533;28;20044;-61
2021/04/06 13:05:43;;;;;;;4.35;0.70;;;37.80;3.00;;;;;;5046333;28;20471;-61
2021/04/06 13:08:11;;;;;;;2.63;1.10;;;38.20;3.20;;;;;;5055474;28;20032;-61
2021/04/06 13:10:39;;;;;;;2.88;0.68;;;39.00;16.80;;;;;;5055108;28;20108;-61
2021/04/06 13:13:09;;;;;;;8.27;1.17;;;38.40;27.70;;;;;;5055226;28;20025;-62
2021/04/06 13:15:36;;;;;;;7.20;1.45;;;39.10;28.40;;;;;;5054484;28;20363;-61